Time;durP1;ratioP1;P1;durP2;ratioP2;P2;SDS_P1;SDS_P2;PMS_P1;PMS_P2;Temp;Humidity;BMP_temperature;BMP_pressure;BME280_temperature;BME280_humidity;BME280_pressure;Samples;Min_cycle;Max_cycle;Signal;HPM_P1;HPM_P2
2021/09/16 00:01:54;;;;;;;2.5;1.7;;;;;;;17.48;98.45703;938.1496;;;;
2021/09/16 00:04:28;;;;;;;2.6;1.5;;;;;;;17.49;98.18066;938.13;;;;
2021/09/16 00:06:56;;;;;;;2.7;1.7;;;;;;;17.49;97.60254;938.2;;;;
2021/09/16 00:10:48;;;;;;;2.4;1.5;;;;;;;17.55;97.39453;938.2192;;;;
2021/09/16 00:13:01;;;;;;;1.8;1.6;;;;;;;17.27;99.84863;938.1545;;;;
2021/09/16 00:15:32;;;;;;;2.8;1.6;;;;;;;17.18;100;938.1595;;;;
2021/09/16 00:18:01;;;;;;;2;1.8;;;;;;;17.19;100;938.1481;;;;
2021/09/16 00:20:32;;;;;;;2.7;1.7;;;;;;;17.14;100;938.1273;;;;
2021/09/16 00:22:56;;;;;;;2.9;1.9;;;;;;;17.18;100;938.0655;;;;
2021/09/16 00:25:25;;;;;;;1.9;1.7;;;;;;;17.14;100;938.063;;;;
2021/09/16 00:27:50;;;;;;;2.8;1.5;;;;;;;17.03;100;937.9857;;;;
2021/09/16 00:30:19;;;;;;;1.7;1.6;;;;;;;17.13;100;938.055;;;;
2021/09/16 00:32:48;;;;;;;1.8;1.7;;;;;;;17.16;99.78711;938.0457;;;;
2021/09/16 00:35:14;;;;;;;3.2;1.6;;;;;;;17.17;100;938.0286;;;;
2021/09/16 00:37:39;;;;;;;2.4;1.9;;;;;;;17.11;100;938.0055;;;;
2021/09/16 00:40:05;;;;;;;2;1.6;;;;;;;17.13;100;937.9738;;;;
2021/09/16 00:42:30;;;;;;;1.9;1.5;;;;;;;17.09;100;937.9405;;;;
2021/09/16 00:46:28;;;;;;;2.1;1.7;;;;;;;17.1;99.99707;938.0047;;;;
2021/09/16 00:48:45;;;;;;;2.3;1.7;;;;;;;17.11;99.7998;938.0545;;;;
2021/09/16 00:51:10;;;;;;;2.1;1.4;;;;;;;17.23;99.07324;938.0159;;;;
2021/09/16 00:53:37;;;;;;;2.3;1.4;;;;;;;17.19;98.62402;938.0267;;;;
2021/09/16 00:56:02;;;;;;;3.4;2;;;;;;;17.03;99.02832;938.0123;;;;
2021/09/16 00:58:29;;;;;;;2.3;1.9;;;;;;;16.9;99.90332;938.0173;;;;
2021/09/16 01:00:55;;;;;;;3;1.8;;;;;;;16.87;100;937.9832;;;;
2021/09/16 01:03:21;;;;;;;3.9;1.4;;;;;;;16.86;99.86035;937.9535;;;;
2021/09/16 01:05:46;;;;;;;2.2;1.5;;;;;;;16.91;99.80078;938.0003;;;;
2021/09/16 01:08:14;;;;;;;1.7;1.6;;;;;;;16.93;99.50391;937.9863;;;;
2021/09/16 01:10:43;;;;;;;1.9;1.4;;;;;;;16.95;99.20898;937.9844;;;;
2021/09/16 01:13:08;;;;;;;1.5;1.3;;;;;;;16.95;99.125;937.9072;;;;
2021/09/16 01:15:36;;;;;;;3.4;1.7;;;;;;;17.02;98.55273;937.9119;;;;
2021/09/16 01:18:01;;;;;;;2.1;1.5;;;;;;;17;98.75488;937.9482;;;;
2021/09/16 01:20:31;;;;;;;1.7;1.4;;;;;;;16.96;98.74512;937.9295;;;;
2021/09/16 01:22:56;;;;;;;3.2;1.6;;;;;;;16.97;99.01563;937.7773;;;;
2021/09/16 01:25:27;;;;;;;1.6;1.5;;;;;;;16.98;98.68164;937.8326;;;;
2021/09/16 01:27:59;;;;;;;2.3;1.5;;;;;;;16.85;99.4873;937.7823;;;;
2021/09/16 01:30:29;;;;;;;2.6;1.7;;;;;;;16.77;100;937.7753;;;;
2021/09/16 01:32:58;;;;;;;3.3;1.5;;;;;;;16.79;99.71582;937.775;;;;
2021/09/16 01:35:23;;;;;;;2.1;1.7;;;;;;;16.7;100;937.8125;;;;
2021/09/16 01:37:53;;;;;;;2;1.6;;;;;;;16.73;99.83105;937.7083;;;;
2021/09/16 01:40:24;;;;;;;1.5;1.4;;;;;;;16.7;99.85742;937.79;;;;
2021/09/16 01:42:49;;;;;;;1.8;1.3;;;;;;;16.66;100;937.7944;;;;
2021/09/16 01:45:19;;;;;;;2.6;1.6;;;;;;;16.65;100;937.7977;;;;
2021/09/16 01:47:44;;;;;;;3.4;1.8;;;;;;;16.71;99.86035;937.7834;;;;
2021/09/16 01:50:09;;;;;;;4.1;1.6;;;;;;;16.73;99.125;937.8353;;;;
2021/09/16 01:52:37;;;;;;;2.1;1.7;;;;;;;16.82;98.16113;937.8737;;;;
2021/09/16 01:55:02;;;;;;;1.9;1.5;;;;;;;16.7;98.75781;937.8608;;;;
2021/09/16 01:57:31;;;;;;;1.5;1.4;;;;;;;16.61;99.25684;937.7506;;;;
2021/09/16 01:59:56;;;;;;;1.2;1.1;;;;;;;16.56;99.58203;937.7441;;;;
2021/09/16 02:02:43;;;;;;;1.6;1.3;;;;;;;16.61;99.2793;937.7281;;;;
2021/09/16 02:05:07;;;;;;;2;1.5;;;;;;;16.58;99.3916;937.7067;;;;
2021/09/16 02:07:32;;;;;;;3.5;1.6;;;;;;;16.55;99.41797;937.6775;;;;
2021/09/16 02:09:58;;;;;;;1.6;1.4;;;;;;;16.57;99.43359;937.6619;;;;
2021/09/16 02:12:23;;;;;;;1.6;1.4;;;;;;;16.58;99.14844;937.5861;;;;
2021/09/16 02:14:48;;;;;;;1.4;1.3;;;;;;;16.58;98.81055;937.5991;;;;
2021/09/16 02:17:18;;;;;;;1.5;1.4;;;;;;;16.48;98.91699;937.5739;;;;
2021/09/16 02:19:46;;;;;;;2.1;1.6;;;;;;;16.45;99.18652;937.5198;;;;
2021/09/16 02:22:11;;;;;;;1.9;1.3;;;;;;;16.47;99.3418;937.558;;;;
2021/09/16 02:24:39;;;;;;;1.5;1.4;;;;;;;16.49;99.26465;937.5248;;;;
2021/09/16 02:27:05;;;;;;;1.5;1.4;;;;;;;16.45;99.39551;937.4788;;;;
2021/09/16 02:29:50;;;;;;;2.2;1.6;;;;;;;16.41;99.41016;937.4783;;;;
2021/09/16 02:32:20;;;;;;;1.9;1.5;;;;;;;16.44;99.13867;937.5737;;;;
2021/09/16 02:34:44;;;;;;;1.5;1.3;;;;;;;16.48;99.10059;937.5974;;;;
2021/09/16 02:37:12;;;;;;;2;1.5;;;;;;;16.56;98.66699;937.6283;;;;
2021/09/16 02:39:37;;;;;;;2.1;1.3;;;;;;;16.4;98.64258;937.5588;;;;
2021/09/16 02:42:03;;;;;;;1.6;1.5;;;;;;;16.28;99.87891;937.574;;;;
2021/09/16 02:44:28;;;;;;;1.4;1.1;;;;;;;16.31;100;937.6492;;;;
2021/09/16 02:46:58;;;;;;;2.8;2;;;;;;;16.2;100;937.7034;;;;
2021/09/16 02:49:27;;;;;;;1.5;1.4;;;;;;;16.28;100;937.7999;;;;
2021/09/16 02:51:52;;;;;;;2;1.4;;;;;;;16.29;100;937.7363;;;;
2021/09/16 02:54:22;;;;;;;2.1;1.3;;;;;;;16.34;99.94922;937.615;;;;
2021/09/16 02:56:49;;;;;;;4.7;1.5;;;;;;;16.34;99.92578;937.5619;;;;
2021/09/16 02:59:17;;;;;;;2.8;1.6;;;;;;;16.35;99.72949;937.4711;;;;
2021/09/16 03:01:42;;;;;;;2.3;1.4;;;;;;;16.28;99.76172;937.4849;;;;
2021/09/16 03:06:46;;;;;;;2.6;1.9;;;;;;;16.26;100;937.4168;;;;
2021/09/16 03:09:15;;;;;;;2.8;2;;;;;;;16.19;100;937.5114;;;;
2021/09/16 03:11:40;;;;;;;2.6;1.9;;;;;;;16.27;100;937.4689;;;;
2021/09/16 03:14:08;;;;;;;2.1;1.7;;;;;;;16.28;99.97168;937.3603;;;;
2021/09/16 03:16:33;;;;;;;1.9;1.6;;;;;;;16.27;99.5166;937.4769;;;;
2021/09/16 03:19:02;;;;;;;2.1;1.8;;;;;;;16.25;100;937.5488;;;;
2021/09/16 03:21:27;;;;;;;3.6;1.9;;;;;;;16.34;100;937.5475;;;;
2021/09/16 03:23:53;;;;;;;2.3;1.8;;;;;;;16.39;100;937.575;;;;
2021/09/16 03:26:20;;;;;;;2.2;1.7;;;;;;;16.36;100;937.507;;;;
2021/09/16 03:28:45;;;;;;;2.8;2.2;;;;;;;16.35;100;937.5064;;;;
2021/09/16 03:31:14;;;;;;;2.1;1.9;;;;;;;16.38;100;937.522;;;;
2021/09/16 03:33:43;;;;;;;1.7;1.5;;;;;;;16.2;100;937.4199;;;;
2021/09/16 03:36:08;;;;;;;2.2;1.7;;;;;;;16.25;100;937.45;;;;
2021/09/16 03:38:38;;;;;;;3.1;1.9;;;;;;;16.39;100;937.3989;;;;
2021/09/16 03:41:07;;;;;;;3.2;1.8;;;;;;;16.47;99.53809;937.4037;;;;
2021/09/16 03:43:33;;;;;;;3.7;2;;;;;;;16.49;99.69531;937.4034;;;;
2021/09/16 03:46:03;;;;;;;1.8;1.7;;;;;;;16.47;99.14453;937.3451;;;;
2021/09/16 03:48:29;;;;;;;2.1;1.8;;;;;;;16.5;99.01172;937.3527;;;;
2021/09/16 03:50:55;;;;;;;1.9;1.8;;;;;;;16.51;98.87891;937.44;;;;
2021/09/16 03:53:24;;;;;;;1.7;1.6;;;;;;;16.39;99.08203;937.4302;;;;
2021/09/16 03:55:49;;;;;;;2.5;1.8;;;;;;;16.46;99.25879;937.4739;;;;
2021/09/16 03:58:18;;;;;;;1.6;1.5;;;;;;;16.51;98.94629;937.5374;;;;
2021/09/16 07:05:10;;;;;;;2.4;1.7;;;;;;;19.2;88.26855;937.6763;;;;
2021/09/16 07:07:37;;;;;;;3.4;1.7;;;;;;;18.97;87.72266;937.6951;;;;
2021/09/16 07:10:02;;;;;;;2.6;1.8;;;;;;;18.85;88.08203;937.7441;;;;
2021/09/16 07:12:27;;;;;;;2.5;2.2;;;;;;;18.5;90.22266;937.7647;;;;
2021/09/16 07:15:28;;;;;;;3.1;2;;;;;;;18.37;90.65918;937.7125;;;;
2021/09/16 07:17:53;;;;;;;2.1;1.9;;;;;;;18.34;92.26758;937.7212;;;;
2021/09/16 07:20:23;;;;;;;3.6;2.2;;;;;;;18.31;91.66895;937.7299;;;;
2021/09/16 07:22:54;;;;;;;3.3;2;;;;;;;18.29;92.60547;937.7231;;;;
2021/09/16 07:25:19;;;;;;;3.2;2.2;;;;;;;18.2;92.58789;937.7511;;;;
2021/09/16 07:27:48;;;;;;;2.2;2;;;;;;;18.22;94.09277;937.8017;;;;
2021/09/16 07:30:13;;;;;;;2.2;2;;;;;;;18.26;94.30762;937.8317;;;;
2021/09/16 07:32:39;;;;;;;3.2;2.4;;;;;;;18.35;93.89941;937.8192;;;;
2021/09/16 07:35:04;;;;;;;3.7;2.3;;;;;;;18.31;93.99414;937.8105;;;;
2021/09/16 07:37:31;;;;;;;2.1;1.9;;;;;;;18.29;94.53613;937.8479;;;;
2021/09/16 07:39:56;;;;;;;3.9;2.3;;;;;;;18.36;94.34082;937.8642;;;;
2021/09/16 07:42:24;;;;;;;3.8;2.4;;;;;;;18.35;94.44531;937.8127;;;;
2021/09/16 07:44:49;;;;;;;5.2;2.4;;;;;;;18.37;94.80957;937.7809;;;;
2021/09/16 07:47:18;;;;;;;3.4;2.4;;;;;;;18.34;94.7207;937.7905;;;;
2021/09/16 07:49:47;;;;;;;4.2;2.6;;;;;;;18.49;94.53223;937.7883;;;;
2021/09/16 07:52:12;;;;;;;4.1;2.4;;;;;;;18.49;93.90625;937.7625;;;;
2021/09/16 07:54:40;;;;;;;4.7;2.5;;;;;;;18.4;94.70117;937.8044;;;;
2021/09/16 07:57:05;;;;;;;2.9;2.4;;;;;;;18.28;95.56836;937.8861;;;;
2021/09/16 07:59:31;;;;;;;2.9;2.6;;;;;;;18.22;96.28711;937.9442;;;;
2021/09/16 08:01:56;;;;;;;2.5;2.3;;;;;;;18.15;96.45703;938.0165;;;;
2021/09/16 08:04:23;;;;;;;3.6;2.8;;;;;;;18.19;96.85254;938.0568;;;;
2021/09/16 08:06:48;;;;;;;4.7;3.1;;;;;;;18.27;96.49609;938.058;;;;
2021/09/16 08:09:14;;;;;;;6.9;2.9;;;;;;;18.33;96.29004;938.0147;;;;
2021/09/16 08:11:40;;;;;;;6.5;4;;;;;;;18.12;96.61426;938.035;;;;
2021/09/16 08:14:05;;;;;;;8.5;4.1;;;;;;;18.03;96.96582;937.9916;;;;
2021/09/16 08:16:31;;;;;;;6.8;4.7;;;;;;;17.92;97.17383;938.032;;;;
2021/09/16 08:18:56;;;;;;;7.7;4.8;;;;;;;17.88;96.72266;938.0787;;;;
2021/09/16 08:21:27;;;;;;;4.9;3.4;;;;;;;17.68;97.92285;938.0797;;;;
2021/09/16 08:23:55;;;;;;;5;3.6;;;;;;;17.45;99.30957;938.0848;;;;
2021/09/16 08:26:20;;;;;;;6.3;3.5;;;;;;;17.51;100;938.0725;;;;
2021/09/16 08:28:48;;;;;;;5;2.9;;;;;;;17.63;99.25684;938.082;;;;
2021/09/16 08:31:19;;;;;;;6.4;3.8;;;;;;;17.72;99.08008;938.1675;;;;
2021/09/16 08:33:43;;;;;;;4.1;3.1;;;;;;;17.73;99.04785;938.1666;;;;
2021/09/16 08:36:10;;;;;;;3.6;2.8;;;;;;;17.87;99.34473;938.1636;;;;
2021/09/16 08:38:35;;;;;;;4.7;3.2;;;;;;;17.94;98.64355;938.0743;;;;
2021/09/16 08:41:01;;;;;;;4.2;2.9;;;;;;;18.01;98.13672;938.0673;;;;
2021/09/16 08:43:36;;;;;;;6.3;3.2;;;;;;;18.16;98.18066;938.1912;;;;
2021/09/16 08:45:52;;;;;;;4.9;3.3;;;;;;;18.2;97.18945;938.1404;;;;
2021/09/16 08:48:17;;;;;;;3.7;2.7;;;;;;;18.29;96.84766;938.1746;;;;
2021/09/16 08:50:43;;;;;;;4.1;3.2;;;;;;;18.23;96.64941;938.1587;;;;
2021/09/16 08:53:08;;;;;;;3.9;3.2;;;;;;;18.26;96.7041;938.175;;;;
2021/09/16 08:55:35;;;;;;;4.1;3.1;;;;;;;18.37;96.58789;938.1727;;;;
2021/09/16 08:58:00;;;;;;;4.6;3.7;;;;;;;18.53;96.1582;938.1544;;;;
2021/09/16 09:00:28;;;;;;;5.5;3.7;;;;;;;18.63;96.08691;938.1278;;;;
2021/09/16 09:02:53;;;;;;;4.7;3.3;;;;;;;18.73;95.14355;938.1981;;;;
2021/09/16 09:05:21;;;;;;;5.3;3.9;;;;;;;18.74;96.0293;938.1447;;;;
2021/09/16 09:07:46;;;;;;;5.7;3.8;;;;;;;18.83;95.12012;938.0833;;;;
2021/09/16 09:10:14;;;;;;;6.5;4.3;;;;;;;18.89;94.2334;938.1225;;;;
2021/09/16 09:12:39;;;;;;;5.5;4.2;;;;;;;18.86;93.82031;938.1375;;;;
2021/09/16 09:15:04;;;;;;;13.1;10.5;;;;;;;18.71;94.50879;938.0803;;;;
2021/09/16 09:17:30;;;;;;;17.4;15.6;;;;;;;18.83;94.94336;938.0972;;;;
2021/09/16 09:20:01;;;;;;;10.8;9.7;;;;;;;18.89;94.21094;938.0956;;;;
2021/09/16 09:22:24;;;;;;;5.6;4.1;;;;;;;18.96;94.18164;938.1037;;;;
2021/09/16 09:24:52;;;;;;;4.9;3.9;;;;;;;19.11;93.4668;938.0836;;;;
2021/09/16 09:27:17;;;;;;;3;2.4;;;;;;;19.18;91.93359;938.0206;;;;
2021/09/16 09:29:42;;;;;;;3.1;2.8;;;;;;;19.29;93.27246;938.0239;;;;
2021/09/16 09:32:07;;;;;;;3;2.5;;;;;;;19.4;92.86426;938.0186;;;;
2021/09/16 09:34:33;;;;;;;3.8;2.9;;;;;;;19.43;92.50879;937.9528;;;;
2021/09/16 09:36:58;;;;;;;3.7;3;;;;;;;19.36;92.8916;937.9381;;;;
2021/09/16 09:39:25;;;;;;;3.9;2.9;;;;;;;19.4;92.26953;937.9008;;;;
2021/09/16 09:41:51;;;;;;;5;3.2;;;;;;;19.42;91.92383;937.8481;;;;
2021/09/16 09:44:16;;;;;;;3.5;2.9;;;;;;;19.53;91.35352;937.8452;;;;
2021/09/16 09:46:41;;;;;;;3.2;2.6;;;;;;;19.46;90.69824;937.889;;;;
2021/09/16 09:49:07;;;;;;;4.6;3.2;;;;;;;19.33;90.81055;937.8251;;;;
2021/09/16 09:51:32;;;;;;;3.9;3.4;;;;;;;19.19;92.19141;937.8314;;;;
2021/09/16 09:54:02;;;;;;;4.4;4;;;;;;;19.14;91.22559;937.8546;;;;
2021/09/16 09:56:26;;;;;;;6.7;6;;;;;;;19.15;91.75098;937.8381;;;;
2021/09/16 09:58:51;;;;;;;5.3;3.7;;;;;;;19.29;90.61621;937.8317;;;;
2021/09/16 10:01:19;;;;;;;3.9;3.3;;;;;;;19.4;91.0459;937.8361;;;;
2021/09/16 10:03:47;;;;;;;4.1;3.3;;;;;;;19.37;91.12012;937.8411;;;;
2021/09/16 10:06:13;;;;;;;5.5;3.5;;;;;;;19.62;92.32715;937.7877;;;;
2021/09/16 10:08:38;;;;;;;4.6;3.7;;;;;;;19.96;91.64063;937.6958;;;;
2021/09/16 10:11:04;;;;;;;4.6;3.7;;;;;;;20.07;88.65234;937.6825;;;;
2021/09/16 10:13:32;;;;;;;8.8;6.9;;;;;;;20.02;89.33105;937.7477;;;;
2021/09/16 10:16:03;;;;;;;17.8;12.7;;;;;;;20.15;88.92285;937.6998;;;;
2021/09/16 10:18:23;;;;;;;6.9;4.2;;;;;;;20.34;86.62793;937.7003;;;;
2021/09/16 10:20:52;;;;;;;7.2;6.5;;;;;;;20.52;87.14258;937.6494;;;;
2021/09/16 10:23:21;;;;;;;4.6;3.2;;;;;;;20.63;85.48242;937.7303;;;;
2021/09/16 10:25:46;;;;;;;4.2;3.4;;;;;;;20.68;87.48926;937.6585;;;;
2021/09/16 10:28:11;;;;;;;3.2;2.8;;;;;;;20.71;84.92188;937.6894;;;;
2021/09/16 10:30:37;;;;;;;3.7;2.6;;;;;;;20.41;85.59082;937.6345;;;;
2021/09/16 10:33:04;;;;;;;4.3;3.1;;;;;;;20.22;84.88672;937.6978;;;;
2021/09/16 10:35:29;;;;;;;3.5;2.9;;;;;;;20.34;86.55762;937.7544;;;;
2021/09/16 10:37:54;;;;;;;4.5;3.5;;;;;;;20.3;87.07617;937.6519;;;;
2021/09/16 10:40:20;;;;;;;4.1;3.3;;;;;;;20.36;87.1582;937.6614;;;;
2021/09/16 10:42:45;;;;;;;3.5;2.9;;;;;;;20.33;85.84375;937.6042;;;;
2021/09/16 10:45:13;;;;;;;3.9;3.2;;;;;;;20.15;86.03223;937.634;;;;
2021/09/16 10:47:39;;;;;;;4.5;3.4;;;;;;;20.17;87.11914;937.5939;;;;
2021/09/16 10:50:04;;;;;;;4;2.9;;;;;;;20.22;87.88672;937.7106;;;;
2021/09/16 10:52:29;;;;;;;4.7;3.5;;;;;;;20.22;87.8418;937.6769;;;;
2021/09/16 10:54:57;;;;;;;4.1;3.3;;;;;;;20.25;87.55371;937.5767;;;;
2021/09/16 10:57:22;;;;;;;3.8;3.3;;;;;;;20.44;87.79199;937.5555;;;;
2021/09/16 10:59:47;;;;;;;5.3;3.6;;;;;;;20.73;88.20996;937.5187;;;;
2021/09/16 11:02:12;;;;;;;5.5;3.3;;;;;;;20.85;85.63965;937.5297;;;;
2021/09/16 11:04:37;;;;;;;3.6;3.1;;;;;;;20.89;85.74219;937.5276;;;;
2021/09/16 11:07:03;;;;;;;3.7;2.9;;;;;;;20.92;85.06934;937.6021;;;;
2021/09/16 11:09:29;;;;;;;2.9;2.4;;;;;;;21.21;82.94824;937.5632;;;;
2021/09/16 11:11:58;;;;;;;4.4;2.9;;;;;;;21.56;82.6748;937.5182;;;;
2021/09/16 11:14:22;;;;;;;3.5;2.7;;;;;;;21.73;83.07031;937.5792;;;;
2021/09/16 11:16:50;;;;;;;2.8;2.1;;;;;;;21.73;82.67188;937.5564;;;;
2021/09/16 11:19:15;;;;;;;2.9;2.3;;;;;;;21.8;81.94727;937.4308;;;;
2021/09/16 11:21:44;;;;;;;2.7;2.2;;;;;;;22.16;80.58203;937.4545;;;;
2021/09/16 11:24:11;;;;;;;3.7;2.5;;;;;;;22.42;78.13184;937.3744;;;;
2021/09/16 11:26:37;;;;;;;15.8;6.5;;;;;;;22.85;77.26563;937.3089;;;;
2021/09/16 11:29:02;;;;;;;22.3;8.7;;;;;;;22.95;75.41699;937.2286;;;;
2021/09/16 11:31:29;;;;;;;22.2;9.9;;;;;;;23.06;70.91406;937.2364;;;;
2021/09/16 11:33:54;;;;;;;1.9;1.7;;;;;;;23;71.31348;937.1608;;;;
2021/09/16 11:36:20;;;;;;;3.1;1.6;;;;;;;22.52;70.66211;937.1755;;;;
2021/09/16 11:38:45;;;;;;;5.5;2;;;;;;;22.94;75.79102;937.1356;;;;
2021/09/16 11:41:10;;;;;;;2.9;2;;;;;;;22.77;75.03613;937.1569;;;;
2021/09/16 11:43:35;;;;;;;2.9;1.6;;;;;;;22.9;73.83398;937.0835;;;;
2021/09/16 11:46:02;;;;;;;2.6;1.7;;;;;;;23.34;74.21484;937.1196;;;;
2021/09/16 11:48:27;;;;;;;3.2;1.6;;;;;;;23.55;71.56641;937.1639;;;;
2021/09/16 11:50:54;;;;;;;2.4;1.5;;;;;;;23.65;70.00781;937.1244;;;;
2021/09/16 11:53:21;;;;;;;2.3;1.7;;;;;;;23.58;71.29004;937.0825;;;;
2021/09/16 11:55:49;;;;;;;8.3;3.5;;;;;;;23.43;71.43164;937.0105;;;;
2021/09/16 11:58:14;;;;;;;3.6;1.8;;;;;;;23.59;72.00781;936.9425;;;;
2021/09/16 12:00:39;;;;;;;2.3;1.7;;;;;;;23.75;73.5293;936.9244;;;;
2021/09/16 12:03:09;;;;;;;3.8;1.7;;;;;;;23.65;71.10156;936.8983;;;;
2021/09/16 12:05:34;;;;;;;2.5;1.8;;;;;;;23.45;71.9873;936.9023;;;;
2021/09/16 12:08:00;;;;;;;3.1;2;;;;;;;23.4;74.07129;936.87;;;;
2021/09/16 12:10:25;;;;;;;3;1.9;;;;;;;23.47;73.58887;936.7795;;;;
2021/09/16 12:12:50;;;;;;;1.8;1.3;;;;;;;23.24;70.91797;936.843;;;;
2021/09/16 12:15:15;;;;;;;4.1;1.3;;;;;;;23.36;73.5127;936.8497;;;;
2021/09/16 12:17:40;;;;;;;1.9;1.4;;;;;;;23.33;72.40039;936.8683;;;;
2021/09/16 12:20:08;;;;;;;2.8;1.3;;;;;;;22.5;68.05371;936.949;;;;
2021/09/16 12:22:33;;;;;;;7.3;2.8;;;;;;;22.43;71.16309;936.8607;;;;
2021/09/16 12:25:00;;;;;;;5;3.2;;;;;;;22.52;71.97754;936.837;;;;
2021/09/16 12:27:25;;;;;;;2.1;1.6;;;;;;;22.58;71.3877;936.7438;;;;
2021/09/16 12:29:54;;;;;;;3.1;2;;;;;;;22.77;73.86035;936.7544;;;;
2021/09/16 12:32:17;;;;;;;1.5;1.3;;;;;;;22.81;75.47656;936.7453;;;;
2021/09/16 12:34:43;;;;;;;2.7;1.5;;;;;;;22.62;76.88574;936.803;;;;
2021/09/16 12:37:11;;;;;;;2.5;1.8;;;;;;;22.6;76.30957;936.712;;;;
2021/09/16 12:39:36;;;;;;;1.8;1.5;;;;;;;22.76;75.63184;936.698;;;;
2021/09/16 12:42:04;;;;;;;3.3;1.8;;;;;;;22.63;75.11719;936.7211;;;;
2021/09/16 12:44:27;;;;;;;2.4;1.7;;;;;;;22.73;77.08301;936.6795;;;;
2021/09/16 12:46:53;;;;;;;2.9;1.8;;;;;;;22.78;73.51074;936.6833;;;;
2021/09/16 12:49:18;;;;;;;2.4;1.7;;;;;;;23.03;76.07715;936.6824;;;;
2021/09/16 12:51:44;;;;;;;3.6;2;;;;;;;23.13;75.12012;936.6422;;;;
2021/09/16 12:54:09;;;;;;;1.7;1.5;;;;;;;22.83;73.30566;936.6667;;;;
2021/09/16 12:56:36;;;;;;;2.3;1.6;;;;;;;22.95;72.1875;936.5795;;;;
2021/09/16 12:59:01;;;;;;;3;1.5;;;;;;;23.25;71.4248;936.5719;;;;
2021/09/16 13:01:30;;;;;;;2.1;1.6;;;;;;;23.1;71.02344;936.603;;;;
2021/09/16 13:03:57;;;;;;;3.4;1.9;;;;;;;23.28;72.11035;936.5861;;;;
2021/09/16 13:06:23;;;;;;;1.7;1.5;;;;;;;23.36;71.18359;936.5492;;;;
2021/09/16 13:08:49;;;;;;;1.9;1.7;;;;;;;23.39;70.53027;936.5193;;;;
2021/09/16 13:11:17;;;;;;;2;1.8;;;;;;;23.27;71.41602;936.5496;;;;
2021/09/16 13:13:42;;;;;;;2.4;1.8;;;;;;;23.12;69.78125;936.5267;;;;
2021/09/16 13:16:15;;;;;;;4.7;1.9;;;;;;;22.86;68.41504;936.4645;;;;
2021/09/16 13:18:42;;;;;;;2.6;2;;;;;;;22.99;72.11035;936.4359;;;;
2021/09/16 13:21:26;;;;;;;2.4;1.5;;;;;;;22.67;66.55273;936.4623;;;;
2021/09/16 13:24:03;;;;;;;2.8;1.7;;;;;;;22.9;70.3584;936.4006;;;;
2021/09/16 13:26:28;;;;;;;1.8;1.7;;;;;;;23.11;72.0957;936.3752;;;;
2021/09/16 13:28:54;;;;;;;2.1;1.7;;;;;;;23.27;67.83105;936.3344;;;;
2021/09/16 13:31:19;;;;;;;2.9;1.8;;;;;;;23.3;69.60938;936.3317;;;;
2021/09/16 13:33:43;;;;;;;3;1.8;;;;;;;23.32;68.09766;936.3533;;;;
2021/09/16 13:36:11;;;;;;;2.3;1.9;;;;;;;23.32;70.80078;936.3729;;;;
2021/09/16 13:38:36;;;;;;;2.9;1.8;;;;;;;23.5;70.59473;936.4087;;;;
2021/09/16 13:41:06;;;;;;;1.7;1.6;;;;;;;23.32;69.9668;936.4056;;;;
2021/09/16 13:43:29;;;;;;;2.4;1.7;;;;;;;23.09;73.47949;936.3133;;;;
2021/09/16 13:45:56;;;;;;;2.2;1.6;;;;;;;22.97;71.36816;936.3223;;;;
2021/09/16 13:48:21;;;;;;;1.9;1.7;;;;;;;23.15;73.86426;936.2874;;;;
2021/09/16 13:50:51;;;;;;;2.1;1.9;;;;;;;23.26;74.74023;936.3855;;;;
2021/09/16 13:53:17;;;;;;;4.5;1.7;;;;;;;23.42;72.41602;936.4075;;;;
2021/09/16 13:55:41;;;;;;;1.4;1.3;;;;;;;23.32;69.0498;936.4509;;;;
2021/09/16 13:58:08;;;;;;;2.4;1.4;;;;;;;23.43;71.47852;936.3278;;;;
2021/09/16 14:00:33;;;;;;;2.5;1.6;;;;;;;23.22;71.62012;936.2932;;;;
2021/09/16 14:02:59;;;;;;;2.7;1.3;;;;;;;23.37;71.15039;936.253;;;;
2021/09/16 14:05:24;;;;;;;2.6;1.4;;;;;;;23.47;71.69629;936.2317;;;;
2021/09/16 14:07:50;;;;;;;2.8;1.7;;;;;;;23.66;71.2793;936.1622;;;;
2021/09/16 14:10:15;;;;;;;1.7;1.6;;;;;;;23.66;71.73633;936.2249;;;;
2021/09/16 14:12:42;;;;;;;2.1;1.5;;;;;;;23.52;75.15039;936.2311;;;;
2021/09/16 14:15:07;;;;;;;3.9;1.4;;;;;;;23.51;71.50195;936.2;;;;
2021/09/16 14:17:32;;;;;;;2.2;1.6;;;;;;;23.38;71.97559;936.2094;;;;
2021/09/16 14:19:57;;;;;;;2.8;1.4;;;;;;;23.53;69.7168;936.1682;;;;
2021/09/16 14:22:23;;;;;;;2.6;1.6;;;;;;;23.29;75.20508;936.1506;;;;
2021/09/16 14:24:48;;;;;;;2.5;1.6;;;;;;;23.48;70.54492;936.1492;;;;
2021/09/16 14:27:14;;;;;;;3.4;1.7;;;;;;;23.56;68.98145;936.1313;;;;
2021/09/16 14:29:40;;;;;;;1.9;1.3;;;;;;;23.61;68.68164;936.1302;;;;
2021/09/16 14:32:05;;;;;;;2.4;1.6;;;;;;;23.56;69.22754;936.1224;;;;
2021/09/16 14:34:30;;;;;;;1.5;1.4;;;;;;;23.43;70.6543;936.1791;;;;
2021/09/16 14:36:57;;;;;;;2.4;1.3;;;;;;;22.72;75.70703;936.1418;;;;
2021/09/16 14:39:22;;;;;;;1.9;1.6;;;;;;;22.85;72.54492;936.0796;;;;
2021/09/16 14:41:48;;;;;;;2.5;1.5;;;;;;;23.07;71.93555;936.0486;;;;
2021/09/16 14:44:14;;;;;;;1.9;1.4;;;;;;;23.14;72.71094;936.1512;;;;
2021/09/16 14:46:39;;;;;;;2.2;1.6;;;;;;;23.32;70.68359;936.2029;;;;
2021/09/16 14:49:05;;;;;;;1.7;1.5;;;;;;;23.46;70.78711;936.2356;;;;
2021/09/16 14:51:30;;;;;;;3.5;1.6;;;;;;;23.58;70.96094;936.1898;;;;
2021/09/16 14:53:57;;;;;;;1.7;1.4;;;;;;;23.48;71.20215;936.0966;;;;
2021/09/16 14:56:22;;;;;;;1.9;1.5;;;;;;;23.42;71.5459;936.0908;;;;
2021/09/16 14:58:47;;;;;;;1.6;1.5;;;;;;;23.3;72.64355;936.0218;;;;
2021/09/16 15:01:14;;;;;;;2.7;1.6;;;;;;;22.99;75.50684;936.0572;;;;
2021/09/16 15:03:40;;;;;;;3.3;1.8;;;;;;;23.09;73.49121;936.0502;;;;
2021/09/16 15:06:05;;;;;;;3.3;1.7;;;;;;;22.9;74.40918;935.9899;;;;
2021/09/16 15:08:31;;;;;;;1.7;1.5;;;;;;;22.82;74.96094;936.0031;;;;
2021/09/16 15:10:57;;;;;;;1.9;1.6;;;;;;;22.59;76.69531;936.0087;;;;
2021/09/16 15:13:23;;;;;;;3;1.8;;;;;;;22.36;76.70215;935.9626;;;;
2021/09/16 15:15:50;;;;;;;2.2;1.7;;;;;;;22.36;77.83789;935.9514;;;;
2021/09/16 15:18:13;;;;;;;2.6;1.8;;;;;;;22.16;79.35254;935.9539;;;;
2021/09/16 15:20:40;;;;;;;2.4;1.8;;;;;;;22.04;79.70605;936.1021;;;;
2021/09/16 15:23:09;;;;;;;3.7;2.1;;;;;;;22.07;79.01953;936.0799;;;;
2021/09/16 15:25:30;;;;;;;3.1;1.9;;;;;;;21.95;80.06348;936.0935;;;;
2021/09/16 15:27:55;;;;;;;3.1;1.8;;;;;;;21.83;80.53418;936.1202;;;;
2021/09/16 15:30:23;;;;;;;3.5;2.1;;;;;;;21.65;81.5459;936.1019;;;;
2021/09/16 15:32:49;;;;;;;5;3.4;;;;;;;21.48;80.82227;936.1057;;;;
2021/09/16 15:35:19;;;;;;;4;2.4;;;;;;;21.41;80.60938;936.085;;;;
2021/09/16 15:37:46;;;;;;;8.6;2.7;;;;;;;21.27;81.22852;936.0966;;;;
2021/09/16 15:40:11;;;;;;;3.9;1.8;;;;;;;21.04;83.31543;936.1121;;;;
2021/09/16 15:42:37;;;;;;;2.3;1.9;;;;;;;20.8;84.04102;936.1526;;;;
2021/09/16 15:45:02;;;;;;;3.1;1.9;;;;;;;20.94;83.64648;936.188;;;;
2021/09/16 15:47:30;;;;;;;1.6;1.5;;;;;;;20.85;82.96289;936.28;;;;
2021/09/16 15:49:55;;;;;;;1.9;1.6;;;;;;;20.77;83.08984;936.2587;;;;
2021/09/16 15:52:20;;;;;;;2.4;1.8;;;;;;;20.8;83.66699;936.2642;;;;
2021/09/16 15:54:46;;;;;;;4.1;2;;;;;;;20.85;83.71094;936.315;;;;
2021/09/16 15:57:12;;;;;;;3.1;1.9;;;;;;;20.56;85.03613;936.361;;;;
2021/09/16 15:59:43;;;;;;;1.8;1.3;;;;;;;20.45;85.05078;936.3563;;;;
2021/09/16 16:02:09;;;;;;;10.8;5.6;;;;;;;20.05;86.6543;936.2698;;;;
2021/09/16 16:04:34;;;;;;;4.2;1.9;;;;;;;19.95;87.98633;936.3389;;;;
2021/09/16 16:06:59;;;;;;;1.7;1.3;;;;;;;19.76;88.27344;936.3798;;;;
2021/09/16 16:09:24;;;;;;;1.9;1.4;;;;;;;19.49;89.04883;936.3878;;;;
2021/09/16 16:11:52;;;;;;;1.8;1.2;;;;;;;19.5;88.25781;936.4213;;;;
2021/09/16 16:14:17;;;;;;;2.4;1.4;;;;;;;19.39;88.86426;936.4372;;;;
2021/09/16 16:16:42;;;;;;;1.4;1.3;;;;;;;19.3;89.10156;936.4581;;;;
2021/09/16 16:19:09;;;;;;;1.8;1.2;;;;;;;19.36;89.18457;936.4977;;;;
2021/09/16 16:21:33;;;;;;;1.4;1.1;;;;;;;19.1;90.78516;936.5366;;;;
2021/09/16 16:23:59;;;;;;;2.3;2;;;;;;;19.08;91.3418;936.5935;;;;
2021/09/16 16:26:24;;;;;;;2.6;1.5;;;;;;;18.87;92.63574;936.6115;;;;
2021/09/16 16:28:51;;;;;;;1.4;1.3;;;;;;;18.82;92.18164;936.6125;;;;
2021/09/16 16:31:16;;;;;;;45.9;6.4;;;;;;;18.59;92.68164;936.6079;;;;
2021/09/16 16:33:42;;;;;;;1.3;1.2;;;;;;;18.36;94.41211;936.5726;;;;
2021/09/16 16:36:07;;;;;;;1.7;1.3;;;;;;;18.46;94.09668;936.5972;;;;
2021/09/16 16:38:33;;;;;;;1.3;1.1;;;;;;;18.52;93.61035;936.5554;;;;
2021/09/16 16:40:58;;;;;;;1.9;1;;;;;;;18.58;92.43555;936.6436;;;;
2021/09/16 16:43:25;;;;;;;1.3;1;;;;;;;18.62;91.25684;936.5975;;;;
2021/09/16 16:45:49;;;;;;;1;0.8;;;;;;;18.69;90.8291;936.6359;;;;
2021/09/16 16:48:14;;;;;;;2;0.9;;;;;;;18.77;89.55664;936.6355;;;;
2021/09/16 16:50:39;;;;;;;0.8;0.8;;;;;;;18.66;89.73047;936.6373;;;;
2021/09/16 16:53:07;;;;;;;1.3;0.8;;;;;;;18.64;89.92285;936.6711;;;;
2021/09/16 16:55:33;;;;;;;7.5;3.1;;;;;;;18.57;90.30469;936.6777;;;;
2021/09/16 16:57:58;;;;;;;1.6;1;;;;;;;18.57;90.41016;936.6914;;;;
2021/09/16 17:00:27;;;;;;;1.1;1;;;;;;;18.47;91.4707;936.73;;;;
2021/09/16 17:02:52;;;;;;;2;1.2;;;;;;;18.46;91.34082;936.7319;;;;
2021/09/16 17:05:17;;;;;;;1.7;1.1;;;;;;;18.4;91.37598;936.7877;;;;
2021/09/16 17:07:45;;;;;;;1.3;1.2;;;;;;;18.27;91.52246;936.8448;;;;
2021/09/16 17:10:10;;;;;;;0.8;0.8;;;;;;;18.29;91.52637;936.8758;;;;
2021/09/16 17:12:37;;;;;;;1.4;1;;;;;;;18.28;91.08301;936.9139;;;;
2021/09/16 17:15:02;;;;;;;0.7;0.7;;;;;;;18.3;90.43555;936.9844;;;;
2021/09/16 17:17:27;;;;;;;0.7;0.7;;;;;;;18.34;90.27051;936.9988;;;;
2021/09/16 17:19:56;;;;;;;1.5;0.8;;;;;;;18.28;91.18555;937.0317;;;;
2021/09/16 17:22:21;;;;;;;0.8;0.6;;;;;;;18.2;90.70605;937.0668;;;;
2021/09/16 17:24:48;;;;;;;0.7;0.7;;;;;;;18.27;90.99707;937.0851;;;;
2021/09/16 17:27:13;;;;;;;0.7;0.7;;;;;;;18.28;90.11621;937.0824;;;;
2021/09/16 17:29:40;;;;;;;0.6;0.6;;;;;;;18.33;89.97656;937.1458;;;;
2021/09/16 17:32:05;;;;;;;0.6;0.6;;;;;;;18.38;89.74316;937.1655;;;;
2021/09/16 17:34:30;;;;;;;1;0.6;;;;;;;18.38;89.16211;937.1423;;;;
2021/09/16 17:36:56;;;;;;;0.8;0.8;;;;;;;18.46;89.07324;937.0745;;;;